WMKI

Details ICAO WMKI (IPH)
Name Ipoh/Sultan Azlan Shaw
Region Malaysia (Peninsular Malaysia)
Timezone Asia/Kuala_Lumpur (UTC+8.0)
Plans Departing 43
Arriving 33
Stats Elevation 130 ft / 40 m (AMSL)
Location 4.567970° 101.092000°
Runways 1
Magnetic Variation 0.106° W
Sunrise 2018-12-16 23:17:08 UTC / 2018-12-17 07:17:08 Local
Sunset 2018-12-17 11:08:36 UTC / 2018-12-17 19:08:36 Local
Advertisement - Login to hide

Runways

ID Width Length Bearing (true/mag) Surface Threshold Overrun Markings Lighting
04 121 ft / 37 m 5,917 ft / 1,804 m 41.21° / 41.31° ASPHALT 0 ft / 0 m 0 ft / 0 m PREC-APP EDGE THRESHOLD ALSF-I
22 121 ft / 37 m 5,917 ft / 1,804 m 221.21° / 221.32° ASPHALT 0 ft / 0 m 0 ft / 0 m APP EDGE THRESHOLD

Approach Navaids

Runway Type Ident Frequency Range Bearing (true/mag) Slope Elevation
04 DME IPO 110.50 MHz 18 nm / 33 km - - 130 ft / 40 m (AMSL)
04 LOC-ILS IPO 110.50 MHz 18 nm / 33 km 41.21° / 41.31° - 130 ft / 40 m (AMSL)
04 GS IPO 110.50 MHz 10 nm / 19 km 41.42° / 41.52° 3.00° 130 ft / 40 m (AMSL)

Map

Weather


0- 5 10 15 20 25 30 35+ Temperature / °C

Clouds and Precipitation
Forecast for 2018-12-17 12:00 UTC. Updated an hour ago

Ground ~20,000 ft ~40,000 ft Winds

METAR

WMKI 171000Z 03005KT 9999 FEW020 SCT028 BKN280 28/24 Q1010

TAF

Not found

Frequencies

Tower 122.10 MHz IPOH TWR
Tower 121.60 MHz IPOH TWR
Warning: Do not use this data for real-world aviation or navigation. No guarantee of current accuracy is given.